sensor_id;sensor_type;location;lat;lon;timestamp;temperature;humidity
23073;DHT22;67971;51.046;3.732;2023-06-22T00:00:58;22.10;99.90
23073;DHT22;67971;51.046;3.732;2023-06-22T00:03:26;22.10;99.90
23073;DHT22;67971;51.046;3.732;2023-06-22T00:05:52;22.10;99.90
23073;DHT22;67971;51.046;3.732;2023-06-22T00:08:18;21.90;99.90
23073;DHT22;67971;51.046;3.732;2023-06-22T00:10:44;21.90;99.90
23073;DHT22;67971;51.046;3.732;2023-06-22T00:13:11;21.80;99.90
23073;DHT22;67971;51.046;3.732;2023-06-22T00:15:39;21.70;99.90
23073;DHT22;67971;51.046;3.732;2023-06-22T00:18:08;21.70;99.90
23073;DHT22;67971;51.046;3.732;2023-06-22T00:20:34;21.80;99.90
23073;DHT22;67971;51.046;3.732;2023-06-22T00:23:03;21.90;99.90
23073;DHT22;67971;51.046;3.732;2023-06-22T00:25:37;21.90;99.90
23073;DHT22;67971;51.046;3.732;2023-06-22T00:28:04;21.90;99.90
23073;DHT22;67971;51.046;3.732;2023-06-22T00:30:31;21.80;99.90
23073;DHT22;67971;51.046;3.732;2023-06-22T00:32:57;21.70;99.90
23073;DHT22;67971;51.046;3.732;2023-06-22T00:35:24;21.70;99.90
23073;DHT22;67971;51.046;3.732;2023-06-22T00:37:57;21.60;99.90
23073;DHT22;67971;51.046;3.732;2023-06-22T00:40:33;21.60;99.90
23073;DHT22;67971;51.046;3.732;2023-06-22T00:42:59;21.60;99.90
23073;DHT22;67971;51.046;3.732;2023-06-22T00:45:26;21.60;99.90
23073;DHT22;67971;51.046;3.732;2023-06-22T00:47:53;21.50;99.90
23073;DHT22;67971;51.046;3.732;2023-06-22T00:50:24;21.50;99.90
23073;DHT22;67971;51.046;3.732;2023-06-22T00:52:55;21.50;99.90
23073;DHT22;67971;51.046;3.732;2023-06-22T00:55:24;21.50;99.90
23073;DHT22;67971;51.046;3.732;2023-06-22T00:57:52;21.60;99.90
23073;DHT22;67971;51.046;3.732;2023-06-22T01:00:24;21.70;99.90
23073;DHT22;67971;51.046;3.732;2023-06-22T01:02:51;21.60;99.90
23073;DHT22;67971;51.046;3.732;2023-06-22T01:05:22;21.60;99.90
23073;DHT22;67971;51.046;3.732;2023-06-22T01:10:51;21.60;99.90
23073;DHT22;67971;51.046;3.732;2023-06-22T01:16:17;21.50;99.90
23073;DHT22;67971;51.046;3.732;2023-06-22T01:18:46;21.40;99.90
23073;DHT22;67971;51.046;3.732;2023-06-22T01:21:16;21.40;99.90
23073;DHT22;67971;51.046;3.732;2023-06-22T01:28:55;21.30;99.90
23073;DHT22;67971;51.046;3.732;2023-06-22T01:31:27;21.30;99.90
23073;DHT22;67971;51.046;3.732;2023-06-22T01:33:58;21.30;99.90
23073;DHT22;67971;51.046;3.732;2023-06-22T01:36:26;21.30;99.90
23073;DHT22;67971;51.046;3.732;2023-06-22T01:38:52;21.20;99.90
23073;DHT22;67971;51.046;3.732;2023-06-22T01:41:20;21.30;99.90
23073;DHT22;67971;51.046;3.732;2023-06-22T01:43:47;21.20;99.90
23073;DHT22;67971;51.046;3.732;2023-06-22T01:46:13;21.20;99.90
23073;DHT22;67971;51.046;3.732;2023-06-22T01:48:40;21.20;99.90
23073;DHT22;67971;51.046;3.732;2023-06-22T01:51:06;21.10;99.90
23073;DHT22;67971;51.046;3.732;2023-06-22T01:53:31;21.00;99.90
23073;DHT22;67971;51.046;3.732;2023-06-22T01:55:57;21.00;99.90
23073;DHT22;67971;51.046;3.732;2023-06-22T01:58:27;21.00;99.90
23073;DHT22;67971;51.046;3.732;2023-06-22T02:01:00;20.90;99.90
23073;DHT22;67971;51.046;3.732;2023-06-22T02:03:35;21.00;99.90
23073;DHT22;67971;51.046;3.732;2023-06-22T02:06:08;20.90;99.90
23073;DHT22;67971;51.046;3.732;2023-06-22T02:08:49;20.80;99.90
23073;DHT22;67971;51.046;3.732;2023-06-22T02:11:18;20.80;99.90
23073;DHT22;67971;51.046;3.732;2023-06-22T02:13:46;20.90;99.90
23073;DHT22;67971;51.046;3.732;2023-06-22T02:16:12;20.90;99.90
23073;DHT22;67971;51.046;3.732;2023-06-22T02:18:39;20.90;99.90
23073;DHT22;67971;51.046;3.732;2023-06-22T02:21:06;20.90;99.90
23073;DHT22;67971;51.046;3.732;2023-06-22T02:23:32;20.90;99.90
23073;DHT22;67971;51.046;3.732;2023-06-22T02:26:02;20.90;99.90
23073;DHT22;67971;51.046;3.732;2023-06-22T02:28:28;20.90;99.90
23073;DHT22;67971;51.046;3.732;2023-06-22T02:30:54;20.80;99.90
23073;DHT22;67971;51.046;3.732;2023-06-22T02:33:20;20.80;99.90
23073;DHT22;67971;51.046;3.732;2023-06-22T02:35:45;20.80;99.90
23073;DHT22;67971;51.046;3.732;2023-06-22T02:38:14;20.80;99.90
23073;DHT22;67971;51.046;3.732;2023-06-22T02:40:40;20.80;99.90
23073;DHT22;67971;51.046;3.732;2023-06-22T02:43:06;20.70;99.90
23073;DHT22;67971;51.046;3.732;2023-06-22T02:45:32;20.70;99.90
23073;DHT22;67971;51.046;3.732;2023-06-22T02:47:57;20.70;99.90
23073;DHT22;67971;51.046;3.732;2023-06-22T02:50:23;20.70;99.90
23073;DHT22;67971;51.046;3.732;2023-06-22T02:52:49;20.70;99.90
23073;DHT22;67971;51.046;3.732;2023-06-22T02:55:14;20.70;99.90
23073;DHT22;67971;51.046;3.732;2023-06-22T02:57:40;20.60;99.90
23073;DHT22;67971;51.046;3.732;2023-06-22T03:00:10;20.60;99.90
23073;DHT22;67971;51.046;3.732;2023-06-22T03:02:46;20.60;99.90
23073;DHT22;67971;51.046;3.732;2023-06-22T03:05:12;20.70;99.90
23073;DHT22;67971;51.046;3.732;2023-06-22T03:07:42;20.60;99.90
23073;DHT22;67971;51.046;3.732;2023-06-22T03:10:09;20.60;99.90
23073;DHT22;67971;51.046;3.732;2023-06-22T03:12:36;20.60;99.90
23073;DHT22;67971;51.046;3.732;2023-06-22T03:15:02;20.60;99.90
23073;DHT22;67971;51.046;3.732;2023-06-22T03:17:27;20.50;99.90
23073;DHT22;67971;51.046;3.732;2023-06-22T03:19:53;20.50;99.90
23073;DHT22;67971;51.046;3.732;2023-06-22T03:22:20;20.50;99.90
23073;DHT22;67971;51.046;3.732;2023-06-22T03:24:45;20.50;99.90
23073;DHT22;67971;51.046;3.732;2023-06-22T03:27:11;20.50;99.90
23073;DHT22;67971;51.046;3.732;2023-06-22T03:29:37;20.50;99.90
23073;DHT22;67971;51.046;3.732;2023-06-22T03:32:03;20.50;99.90
23073;DHT22;67971;51.046;3.732;2023-06-22T03:34:30;20.50;99.90
23073;DHT22;67971;51.046;3.732;2023-06-22T03:36:58;20.50;99.90
23073;DHT22;67971;51.046;3.732;2023-06-22T03:39:24;20.50;99.90
23073;DHT22;67971;51.046;3.732;2023-06-22T03:41:50;20.50;99.90
23073;DHT22;67971;51.046;3.732;2023-06-22T03:44:16;20.50;99.90
23073;DHT22;67971;51.046;3.732;2023-06-22T03:46:41;20.50;99.90
23073;DHT22;67971;51.046;3.732;2023-06-22T03:49:07;20.60;99.90
23073;DHT22;67971;51.046;3.732;2023-06-22T03:51:33;20.60;99.90
23073;DHT22;67971;51.046;3.732;2023-06-22T03:53:58;20.60;99.90
23073;DHT22;67971;51.046;3.732;2023-06-22T03:56:24;20.60;99.90
23073;DHT22;67971;51.046;3.732;2023-06-22T03:58:50;20.70;99.90
23073;DHT22;67971;51.046;3.732;2023-06-22T04:01:16;20.70;99.90
23073;DHT22;67971;51.046;3.732;2023-06-22T04:03:42;20.70;99.90
23073;DHT22;67971;51.046;3.732;2023-06-22T04:06:08;20.80;99.90
23073;DHT22;67971;51.046;3.732;2023-06-22T04:08:34;20.80;99.90
23073;DHT22;67971;51.046;3.732;2023-06-22T04:10:59;20.80;99.90
23073;DHT22;67971;51.046;3.732;2023-06-22T04:13:25;20.90;99.90
23073;DHT22;67971;51.046;3.732;2023-06-22T04:15:50;20.90;99.90
23073;DHT22;67971;51.046;3.732;2023-06-22T04:18:16;20.90;99.90
23073;DHT22;67971;51.046;3.732;2023-06-22T04:20:42;21.00;99.90
23073;DHT22;67971;51.046;3.732;2023-06-22T04:23:07;21.00;99.90
23073;DHT22;67971;51.046;3.732;2023-06-22T04:25:33;21.10;99.90
23073;DHT22;67971;51.046;3.732;2023-06-22T04:27:59;21.10;99.90
23073;DHT22;67971;51.046;3.732;2023-06-22T04:30:28;21.20;99.90
23073;DHT22;67971;51.046;3.732;2023-06-22T04:32:57;21.30;99.90
23073;DHT22;67971;51.046;3.732;2023-06-22T04:35:26;21.40;99.90
23073;DHT22;67971;51.046;3.732;2023-06-22T04:37:53;21.40;99.90
23073;DHT22;67971;51.046;3.732;2023-06-22T04:40:24;21.50;99.90
23073;DHT22;67971;51.046;3.732;2023-06-22T04:42:49;21.50;99.90
23073;DHT22;67971;51.046;3.732;2023-06-22T04:45:19;21.50;99.90
23073;DHT22;67971;51.046;3.732;2023-06-22T04:47:45;21.50;99.90
23073;DHT22;67971;51.046;3.732;2023-06-22T04:50:12;21.60;99.90
23073;DHT22;67971;51.046;3.732;2023-06-22T04:52:38;21.60;99.90
23073;DHT22;67971;51.046;3.732;2023-06-22T04:55:04;21.70;99.90
23073;DHT22;67971;51.046;3.732;2023-06-22T04:57:30;21.70;99.90
23073;DHT22;67971;51.046;3.732;2023-06-22T04:59:59;21.80;99.90
23073;DHT22;67971;51.046;3.732;2023-06-22T05:02:38;21.90;99.90
23073;DHT22;67971;51.046;3.732;2023-06-22T05:05:04;21.90;99.90
23073;DHT22;67971;51.046;3.732;2023-06-22T05:07:36;22.00;99.90
23073;DHT22;67971;51.046;3.732;2023-06-22T05:10:02;22.10;99.90
23073;DHT22;67971;51.046;3.732;2023-06-22T05:12:29;22.30;99.90
23073;DHT22;67971;51.046;3.732;2023-06-22T05:14:55;22.40;99.90
23073;DHT22;67971;51.046;3.732;2023-06-22T05:17:21;22.40;99.90
23073;DHT22;67971;51.046;3.732;2023-06-22T05:19:46;22.30;99.90
23073;DHT22;67971;51.046;3.732;2023-06-22T05:22:15;22.50;99.90
23073;DHT22;67971;51.046;3.732;2023-06-22T05:24:42;22.70;99.90
23073;DHT22;67971;51.046;3.732;2023-06-22T05:27:08;22.70;99.90
23073;DHT22;67971;51.046;3.732;2023-06-22T05:29:34;22.80;99.90
23073;DHT22;67971;51.046;3.732;2023-06-22T05:32:00;23.10;99.90
23073;DHT22;67971;51.046;3.732;2023-06-22T05:34:26;23.30;99.90
23073;DHT22;67971;51.046;3.732;2023-06-22T05:36:52;23.50;99.90
23073;DHT22;67971;51.046;3.732;2023-06-22T05:39:18;23.60;99.90
23073;DHT22;67971;51.046;3.732;2023-06-22T05:41:45;23.70;99.90
23073;DHT22;67971;51.046;3.732;2023-06-22T05:44:11;23.80;99.90
23073;DHT22;67971;51.046;3.732;2023-06-22T05:46:40;23.70;99.90
23073;DHT22;67971;51.046;3.732;2023-06-22T05:49:06;23.90;99.90
23073;DHT22;67971;51.046;3.732;2023-06-22T05:51:31;24.00;99.90
23073;DHT22;67971;51.046;3.732;2023-06-22T05:53:57;24.10;99.90
23073;DHT22;67971;51.046;3.732;2023-06-22T05:56:23;24.20;99.90
23073;DHT22;67971;51.046;3.732;2023-06-22T05:58:48;24.30;99.90
23073;DHT22;67971;51.046;3.732;2023-06-22T06:01:14;24.30;99.90
23073;DHT22;67971;51.046;3.732;2023-06-22T06:03:41;24.10;99.90
23073;DHT22;67971;51.046;3.732;2023-06-22T06:06:07;24.10;99.90
23073;DHT22;67971;51.046;3.732;2023-06-22T06:08:33;24.30;99.90
23073;DHT22;67971;51.046;3.732;2023-06-22T06:10:59;24.50;99.90
23073;DHT22;67971;51.046;3.732;2023-06-22T06:13:24;24.60;99.90
23073;DHT22;67971;51.046;3.732;2023-06-22T06:15:50;24.70;99.90
23073;DHT22;67971;51.046;3.732;2023-06-22T06:18:20;24.80;99.90
23073;DHT22;67971;51.046;3.732;2023-06-22T06:20:46;24.90;99.90
23073;DHT22;67971;51.046;3.732;2023-06-22T06:23:12;24.90;99.90
23073;DHT22;67971;51.046;3.732;2023-06-22T06:25:38;24.90;99.90
23073;DHT22;67971;51.046;3.732;2023-06-22T06:28:03;24.90;99.90
23073;DHT22;67971;51.046;3.732;2023-06-22T06:30:30;25.00;99.90
23073;DHT22;67971;51.046;3.732;2023-06-22T06:32:56;24.90;99.90
23073;DHT22;67971;51.046;3.732;2023-06-22T06:35:22;24.60;99.90
23073;DHT22;67971;51.046;3.732;2023-06-22T06:37:49;24.70;99.90
23073;DHT22;67971;51.046;3.732;2023-06-22T06:40:17;24.70;99.90
23073;DHT22;67971;51.046;3.732;2023-06-22T06:42:47;24.90;99.90
23073;DHT22;67971;51.046;3.732;2023-06-22T06:45:16;25.00;99.90
23073;DHT22;67971;51.046;3.732;2023-06-22T06:47:42;25.10;99.90
23073;DHT22;67971;51.046;3.732;2023-06-22T06:50:09;25.10;99.90
23073;DHT22;67971;51.046;3.732;2023-06-22T06:52:35;25.10;99.90
23073;DHT22;67971;51.046;3.732;2023-06-22T06:55:01;25.20;99.90
23073;DHT22;67971;51.046;3.732;2023-06-22T06:57:26;25.40;99.90
23073;DHT22;67971;51.046;3.732;2023-06-22T06:59:55;25.40;99.90
23073;DHT22;67971;51.046;3.732;2023-06-22T07:02:21;25.60;99.90
23073;DHT22;67971;51.046;3.732;2023-06-22T07:04:47;25.60;99.90
23073;DHT22;67971;51.046;3.732;2023-06-22T07:07:14;25.70;99.90
23073;DHT22;67971;51.046;3.732;2023-06-22T07:09:39;25.70;99.90
23073;DHT22;67971;51.046;3.732;2023-06-22T07:12:06;25.70;99.90
23073;DHT22;67971;51.046;3.732;2023-06-22T07:14:31;25.60;99.90
23073;DHT22;67971;51.046;3.732;2023-06-22T07:16:57;25.70;99.90
23073;DHT22;67971;51.046;3.732;2023-06-22T07:19:27;25.80;99.90
23073;DHT22;67971;51.046;3.732;2023-06-22T07:21:54;26.10;99.90
23073;DHT22;67971;51.046;3.732;2023-06-22T07:24:20;26.10;99.90
23073;DHT22;67971;51.046;3.732;2023-06-22T07:26:47;26.00;99.90
23073;DHT22;67971;51.046;3.732;2023-06-22T07:29:13;26.00;99.90
23073;DHT22;67971;51.046;3.732;2023-06-22T07:31:39;26.30;99.90
23073;DHT22;67971;51.046;3.732;2023-06-22T07:34:06;26.20;99.90
23073;DHT22;67971;51.046;3.732;2023-06-22T07:36:32;26.30;99.90
23073;DHT22;67971;51.046;3.732;2023-06-22T07:38:58;26.40;99.90
23073;DHT22;67971;51.046;3.732;2023-06-22T07:41:23;26.50;99.90
23073;DHT22;67971;51.046;3.732;2023-06-22T07:43:49;26.50;99.90
23073;DHT22;67971;51.046;3.732;2023-06-22T07:46:15;26.50;99.90
23073;DHT22;67971;51.046;3.732;2023-06-22T07:48:41;26.40;99.90
23073;DHT22;67971;51.046;3.732;2023-06-22T07:51:08;26.40;99.90
23073;DHT22;67971;51.046;3.732;2023-06-22T07:53:34;26.30;99.90
23073;DHT22;67971;51.046;3.732;2023-06-22T07:56:01;26.40;99.90
23073;DHT22;67971;51.046;3.732;2023-06-22T07:58:32;26.60;99.90
23073;DHT22;67971;51.046;3.732;2023-06-22T08:00:58;26.80;99.90
23073;DHT22;67971;51.046;3.732;2023-06-22T08:03:24;26.90;99.90
23073;DHT22;67971;51.046;3.732;2023-06-22T08:05:50;26.70;99.90
23073;DHT22;67971;51.046;3.732;2023-06-22T08:08:15;26.70;99.90
23073;DHT22;67971;51.046;3.732;2023-06-22T08:10:42;26.50;99.90
23073;DHT22;67971;51.046;3.732;2023-06-22T08:13:08;26.30;99.90
23073;DHT22;67971;51.046;3.732;2023-06-22T08:15:33;26.30;99.90
23073;DHT22;67971;51.046;3.732;2023-06-22T08:17:59;26.50;99.90
23073;DHT22;67971;51.046;3.732;2023-06-22T08:20:26;26.50;99.90
23073;DHT22;67971;51.046;3.732;2023-06-22T08:22:53;26.60;99.90
23073;DHT22;67971;51.046;3.732;2023-06-22T08:25:20;26.70;99.90
23073;DHT22;67971;51.046;3.732;2023-06-22T08:27:46;26.80;99.90
23073;DHT22;67971;51.046;3.732;2023-06-22T08:30:14;26.70;99.90
23073;DHT22;67971;51.046;3.732;2023-06-22T08:32:40;26.60;99.90
23073;DHT22;67971;51.046;3.732;2023-06-22T08:35:06;26.50;99.90
23073;DHT22;67971;51.046;3.732;2023-06-22T08:37:33;26.40;99.90
23073;DHT22;67971;51.046;3.732;2023-06-22T08:40:02;26.30;99.90
23073;DHT22;67971;51.046;3.732;2023-06-22T08:42:31;26.20;99.90
23073;DHT22;67971;51.046;3.732;2023-06-22T08:44:57;25.90;99.90
23073;DHT22;67971;51.046;3.732;2023-06-22T08:47:22;25.90;99.90
23073;DHT22;67971;51.046;3.732;2023-06-22T08:49:48;26.10;99.90
23073;DHT22;67971;51.046;3.732;2023-06-22T08:52:14;26.30;99.90
23073;DHT22;67971;51.046;3.732;2023-06-22T08:54:40;26.30;99.90
23073;DHT22;67971;51.046;3.732;2023-06-22T08:57:06;26.20;99.90
23073;DHT22;67971;51.046;3.732;2023-06-22T08:59:32;26.00;99.90
23073;DHT22;67971;51.046;3.732;2023-06-22T09:01:57;26.00;99.90
23073;DHT22;67971;51.046;3.732;2023-06-22T09:04:24;26.00;99.90
23073;DHT22;67971;51.046;3.732;2023-06-22T09:06:49;25.90;99.90
23073;DHT22;67971;51.046;3.732;2023-06-22T09:09:18;25.70;99.90
23073;DHT22;67971;51.046;3.732;2023-06-22T09:11:44;25.70;99.90
23073;DHT22;67971;51.046;3.732;2023-06-22T09:14:10;25.60;99.90
23073;DHT22;67971;51.046;3.732;2023-06-22T09:16:36;25.40;99.90
23073;DHT22;67971;51.046;3.732;2023-06-22T09:19:02;25.20;99.90
23073;DHT22;67971;51.046;3.732;2023-06-22T09:21:28;25.30;99.90
23073;DHT22;67971;51.046;3.732;2023-06-22T09:23:54;25.40;99.90
23073;DHT22;67971;51.046;3.732;2023-06-22T09:26:21;25.00;99.90
23073;DHT22;67971;51.046;3.732;2023-06-22T09:28:46;25.00;99.90
23073;DHT22;67971;51.046;3.732;2023-06-22T09:31:12;25.00;99.90
23073;DHT22;67971;51.046;3.732;2023-06-22T09:33:40;25.20;99.90
23073;DHT22;67971;51.046;3.732;2023-06-22T09:36:06;25.20;99.90
23073;DHT22;67971;51.046;3.732;2023-06-22T09:38:38;25.10;99.90
23073;DHT22;67971;51.046;3.732;2023-06-22T09:41:04;25.10;99.90
23073;DHT22;67971;51.046;3.732;2023-06-22T09:43:32;25.00;99.90
23073;DHT22;67971;51.046;3.732;2023-06-22T09:45:57;25.00;99.90
23073;DHT22;67971;51.046;3.732;2023-06-22T09:48:23;25.00;99.90
23073;DHT22;67971;51.046;3.732;2023-06-22T09:50:49;24.90;99.90
23073;DHT22;67971;51.046;3.732;2023-06-22T09:53:15;25.10;99.90
23073;DHT22;67971;51.046;3.732;2023-06-22T09:55:40;25.00;99.90
23073;DHT22;67971;51.046;3.732;2023-06-22T09:58:06;24.80;99.90
23073;DHT22;67971;51.046;3.732;2023-06-22T10:00:32;24.80;99.90
23073;DHT22;67971;51.046;3.732;2023-06-22T10:02:57;24.70;99.90
23073;DHT22;67971;51.046;3.732;2023-06-22T10:05:23;24.70;99.90
23073;DHT22;67971;51.046;3.732;2023-06-22T10:07:50;24.50;99.90
23073;DHT22;67971;51.046;3.732;2023-06-22T10:10:15;24.50;99.90
23073;DHT22;67971;51.046;3.732;2023-06-22T10:12:43;24.50;99.90
23073;DHT22;67971;51.046;3.732;2023-06-22T10:15:10;24.70;99.90
23073;DHT22;67971;51.046;3.732;2023-06-22T10:17:35;24.70;99.90
23073;DHT22;67971;51.046;3.732;2023-06-22T10:20:01;24.60;99.90
23073;DHT22;67971;51.046;3.732;2023-06-22T10:22:37;24.70;99.90
23073;DHT22;67971;51.046;3.732;2023-06-22T10:25:03;24.70;99.90
23073;DHT22;67971;51.046;3.732;2023-06-22T10:27:29;24.70;99.90
23073;DHT22;67971;51.046;3.732;2023-06-22T10:29:55;24.70;99.90
23073;DHT22;67971;51.046;3.732;2023-06-22T10:32:20;24.80;99.90
23073;DHT22;67971;51.046;3.732;2023-06-22T10:34:46;24.80;99.90
23073;DHT22;67971;51.046;3.732;2023-06-22T10:37:12;24.80;99.90
23073;DHT22;67971;51.046;3.732;2023-06-22T10:39:37;24.70;99.90
23073;DHT22;67971;51.046;3.732;2023-06-22T10:42:03;24.70;99.90
23073;DHT22;67971;51.046;3.732;2023-06-22T10:44:29;24.80;99.90
23073;DHT22;67971;51.046;3.732;2023-06-22T10:46:55;24.80;99.90
23073;DHT22;67971;51.046;3.732;2023-06-22T10:49:20;24.80;99.90
23073;DHT22;67971;51.046;3.732;2023-06-22T10:51:46;24.90;99.90
23073;DHT22;67971;51.046;3.732;2023-06-22T10:54:12;25.10;99.90
23073;DHT22;67971;51.046;3.732;2023-06-22T10:56:39;25.20;99.90
23073;DHT22;67971;51.046;3.732;2023-06-22T10:59:05;25.20;99.90
23073;DHT22;67971;51.046;3.732;2023-06-22T11:01:31;25.20;99.90
23073;DHT22;67971;51.046;3.732;2023-06-22T11:03:57;24.80;99.90
23073;DHT22;67971;51.046;3.732;2023-06-22T11:06:22;24.60;99.90
23073;DHT22;67971;51.046;3.732;2023-06-22T11:08:48;24.60;99.90
23073;DHT22;67971;51.046;3.732;2023-06-22T11:11:14;24.30;99.90
23073;DHT22;67971;51.046;3.732;2023-06-22T11:13:42;23.70;99.90
23073;DHT22;67971;51.046;3.732;2023-06-22T11:16:08;23.70;99.90
23073;DHT22;67971;51.046;3.732;2023-06-22T11:18:34;23.80;99.90
23073;DHT22;67971;51.046;3.732;2023-06-22T11:20:59;24.00;99.90
23073;DHT22;67971;51.046;3.732;2023-06-22T11:23:25;24.30;99.90
23073;DHT22;67971;51.046;3.732;2023-06-22T11:25:53;24.40;99.90
23073;DHT22;67971;51.046;3.732;2023-06-22T11:28:18;24.20;99.90
23073;DHT22;67971;51.046;3.732;2023-06-22T11:30:44;24.10;99.90
23073;DHT22;67971;51.046;3.732;2023-06-22T11:33:09;24.00;99.90
23073;DHT22;67971;51.046;3.732;2023-06-22T11:35:35;23.90;99.90
23073;DHT22;67971;51.046;3.732;2023-06-22T11:38:01;23.80;99.90
23073;DHT22;67971;51.046;3.732;2023-06-22T11:40:28;23.80;99.90
23073;DHT22;67971;51.046;3.732;2023-06-22T11:42:54;23.90;99.90
23073;DHT22;67971;51.046;3.732;2023-06-22T11:45:20;24.00;99.90
23073;DHT22;67971;51.046;3.732;2023-06-22T11:47:46;24.00;99.90
23073;DHT22;67971;51.046;3.732;2023-06-22T11:50:12;24.10;99.90
23073;DHT22;67971;51.046;3.732;2023-06-22T11:52:37;24.10;99.90
23073;DHT22;67971;51.046;3.732;2023-06-22T11:55:03;24.10;99.90
23073;DHT22;67971;51.046;3.732;2023-06-22T11:57:33;24.10;99.90
23073;DHT22;67971;51.046;3.732;2023-06-22T11:59:59;24.00;99.90
23073;DHT22;67971;51.046;3.732;2023-06-22T12:02:25;23.70;99.90
23073;DHT22;67971;51.046;3.732;2023-06-22T12:04:51;23.70;99.90
23073;DHT22;67971;51.046;3.732;2023-06-22T12:07:18;23.70;99.90
23073;DHT22;67971;51.046;3.732;2023-06-22T12:09:43;23.90;99.90
23073;DHT22;67971;51.046;3.732;2023-06-22T12:12:09;24.10;99.90
23073;DHT22;67971;51.046;3.732;2023-06-22T12:14:35;24.10;99.90
23073;DHT22;67971;51.046;3.732;2023-06-22T12:17:01;24.20;99.90
23073;DHT22;67971;51.046;3.732;2023-06-22T12:19:27;24.20;99.90
23073;DHT22;67971;51.046;3.732;2023-06-22T12:21:52;24.30;99.90
23073;DHT22;67971;51.046;3.732;2023-06-22T12:24:18;24.50;99.90
23073;DHT22;67971;51.046;3.732;2023-06-22T12:26:43;24.60;99.90
23073;DHT22;67971;51.046;3.732;2023-06-22T12:29:09;24.60;99.90
23073;DHT22;67971;51.046;3.732;2023-06-22T12:31:36;24.50;99.90
23073;DHT22;67971;51.046;3.732;2023-06-22T12:34:04;24.60;99.90
23073;DHT22;67971;51.046;3.732;2023-06-22T12:36:29;24.50;99.90
23073;DHT22;67971;51.046;3.732;2023-06-22T12:38:55;24.60;99.90
23073;DHT22;67971;51.046;3.732;2023-06-22T12:41:21;24.80;99.90
23073;DHT22;67971;51.046;3.732;2023-06-22T12:43:47;24.70;99.90
23073;DHT22;67971;51.046;3.732;2023-06-22T12:46:12;24.80;99.90
23073;DHT22;67971;51.046;3.732;2023-06-22T12:48:38;24.80;99.90
23073;DHT22;67971;51.046;3.732;2023-06-22T12:51:09;25.00;99.90
23073;DHT22;67971;51.046;3.732;2023-06-22T12:53:35;25.00;99.90
23073;DHT22;67971;51.046;3.732;2023-06-22T12:56:01;25.10;99.90
23073;DHT22;67971;51.046;3.732;2023-06-22T12:58:26;25.20;99.90
23073;DHT22;67971;51.046;3.732;2023-06-22T13:00:53;25.40;99.90
23073;DHT22;67971;51.046;3.732;2023-06-22T13:03:18;25.50;99.90
23073;DHT22;67971;51.046;3.732;2023-06-22T13:05:44;25.50;99.90
23073;DHT22;67971;51.046;3.732;2023-06-22T13:08:10;25.40;99.90
23073;DHT22;67971;51.046;3.732;2023-06-22T13:10:36;25.30;99.90
23073;DHT22;67971;51.046;3.732;2023-06-22T13:13:02;25.30;99.90
23073;DHT22;67971;51.046;3.732;2023-06-22T13:15:28;25.20;99.90
23073;DHT22;67971;51.046;3.732;2023-06-22T13:17:55;25.20;99.90
23073;DHT22;67971;51.046;3.732;2023-06-22T13:20:20;25.20;99.90
23073;DHT22;67971;51.046;3.732;2023-06-22T13:22:46;25.10;99.90
23073;DHT22;67971;51.046;3.732;2023-06-22T13:25:12;25.20;99.90
23073;DHT22;67971;51.046;3.732;2023-06-22T13:27:42;25.20;99.90
23073;DHT22;67971;51.046;3.732;2023-06-22T13:30:08;25.30;99.90
23073;DHT22;67971;51.046;3.732;2023-06-22T13:32:34;25.40;99.90
23073;DHT22;67971;51.046;3.732;2023-06-22T13:35:00;25.50;99.90
23073;DHT22;67971;51.046;3.732;2023-06-22T13:37:26;25.50;99.90
23073;DHT22;67971;51.046;3.732;2023-06-22T13:39:52;25.50;99.90
23073;DHT22;67971;51.046;3.732;2023-06-22T13:42:18;25.50;99.90
23073;DHT22;67971;51.046;3.732;2023-06-22T13:44:44;25.50;99.90
23073;DHT22;67971;51.046;3.732;2023-06-22T13:47:09;25.40;99.90
23073;DHT22;67971;51.046;3.732;2023-06-22T13:49:35;25.60;99.90
23073;DHT22;67971;51.046;3.732;2023-06-22T13:52:01;25.70;99.90
23073;DHT22;67971;51.046;3.732;2023-06-22T13:54:28;25.80;99.90
23073;DHT22;67971;51.046;3.732;2023-06-22T13:56:54;25.80;99.90
23073;DHT22;67971;51.046;3.732;2023-06-22T13:59:20;26.10;99.90
23073;DHT22;67971;51.046;3.732;2023-06-22T14:01:46;26.50;99.90
23073;DHT22;67971;51.046;3.732;2023-06-22T14:04:12;26.70;99.90
23073;DHT22;67971;51.046;3.732;2023-06-22T14:06:38;26.80;99.90
23073;DHT22;67971;51.046;3.732;2023-06-22T14:09:04;26.90;99.90
23073;DHT22;67971;51.046;3.732;2023-06-22T14:11:29;27.10;99.90
23073;DHT22;67971;51.046;3.732;2023-06-22T14:13:55;27.20;99.90
23073;DHT22;67971;51.046;3.732;2023-06-22T14:16:20;27.30;99.90
23073;DHT22;67971;51.046;3.732;2023-06-22T14:18:46;27.40;99.90
23073;DHT22;67971;51.046;3.732;2023-06-22T14:21:12;27.40;99.90
23073;DHT22;67971;51.046;3.732;2023-06-22T14:23:37;27.30;99.90
23073;DHT22;67971;51.046;3.732;2023-06-22T14:26:03;27.00;99.90
23073;DHT22;67971;51.046;3.732;2023-06-22T14:28:29;27.00;99.90
23073;DHT22;67971;51.046;3.732;2023-06-22T14:30:55;26.90;99.90
23073;DHT22;67971;51.046;3.732;2023-06-22T14:33:22;26.90;99.90
23073;DHT22;67971;51.046;3.732;2023-06-22T14:35:47;27.00;99.90
23073;DHT22;67971;51.046;3.732;2023-06-22T14:38:13;27.10;99.90
23073;DHT22;67971;51.046;3.732;2023-06-22T14:40:39;27.40;99.90
23073;DHT22;67971;51.046;3.732;2023-06-22T14:43:04;27.80;99.90
23073;DHT22;67971;51.046;3.732;2023-06-22T14:45:30;28.00;99.90
23073;DHT22;67971;51.046;3.732;2023-06-22T14:47:56;28.40;99.90
23073;DHT22;67971;51.046;3.732;2023-06-22T14:50:21;28.60;99.90
23073;DHT22;67971;51.046;3.732;2023-06-22T14:52:47;28.70;99.90
23073;DHT22;67971;51.046;3.732;2023-06-22T14:55:13;28.90;99.90
23073;DHT22;67971;51.046;3.732;2023-06-22T14:57:39;28.40;99.90
23073;DHT22;67971;51.046;3.732;2023-06-22T15:00:05;27.70;99.90
23073;DHT22;67971;51.046;3.732;2023-06-22T15:02:32;27.80;99.90
23073;DHT22;67971;51.046;3.732;2023-06-22T15:04:57;27.60;99.90
23073;DHT22;67971;51.046;3.732;2023-06-22T15:07:23;27.40;99.90
23073;DHT22;67971;51.046;3.732;2023-06-22T15:09:48;27.00;99.90
23073;DHT22;67971;51.046;3.732;2023-06-22T15:12:14;26.90;99.90
23073;DHT22;67971;51.046;3.732;2023-06-22T15:14:43;27.00;99.90
23073;DHT22;67971;51.046;3.732;2023-06-22T15:17:09;26.90;99.90
23073;DHT22;67971;51.046;3.732;2023-06-22T15:19:35;27.00;99.90
23073;DHT22;67971;51.046;3.732;2023-06-22T15:22:06;26.90;99.90
23073;DHT22;67971;51.046;3.732;2023-06-22T15:24:33;26.90;99.90
23073;DHT22;67971;51.046;3.732;2023-06-22T15:26:59;26.60;99.90
23073;DHT22;67971;51.046;3.732;2023-06-22T15:29:25;26.60;99.90
23073;DHT22;67971;51.046;3.732;2023-06-22T15:31:52;26.80;99.90
23073;DHT22;67971;51.046;3.732;2023-06-22T15:34:17;26.90;99.90
23073;DHT22;67971;51.046;3.732;2023-06-22T15:36:43;27.00;99.90